Navigator Of The Seas — C6FU4 — position and weather

sailwx.info

Track history (hours):
 
Tides and Currents Weather Stations Pressure Air Temp Water Temp Dewpoint Dewpoint Depression Visibility Wind Speed Wind Dir Waves Ship Positions

Navigator Of The Seas

Operator: Royal Caribbean Cruises Ltd

Last reported at 2017-Jul-20 18:00 UTC. Time now 2017-Jul-21 02:30 UTC.
Position N 43°36' W 009°24'.

Type: Passenger vessel. MMSI: 311478000.

Wind from 330 at 12 knots

Barometer 1020.1 mb
Air temperature 18.0 ° C
Visibility: greater than 10.8 NM
Dewpoint 16.4 ° C
Water temperature 18.0 ° C

Date/timePositionNaut miles runAvg speedWind from/ knotsBaromVisibWave heightAir tempDewpointWater temp
2017-Jul-20 18:00N 43°36' W 009°24'23919.2 330 / 121020.110.8 18.016.418.0
2017-Jul-20 05:31N 39°38' W 009°51'019.7
2017-Jul-20 05:30N 39°37' W 009°51'1019.5
2017-Jul-20 04:59N 39°27' W 009°52'919.5
2017-Jul-20 04:30N 39°18' W 009°51'1019.7
2017-Jul-20 04:00N 39°08' W 009°51'1020.1
2017-Jul-20 03:30N 38°58' W 009°51'1019.7
2017-Jul-20 03:00N 38°48' W 009°51'1019.5
2017-Jul-20 02:30N 38°39' W 009°50'1020.0
2017-Jul-20 02:00N 38°29' W 009°48'1019.8
2017-Jul-20 01:30N 38°19' W 009°45'1020.1
2017-Jul-20 01:00N 38°09' W 009°42'1020.0
2017-Jul-20 00:30N 37°60' W 009°40'1020.3
2017-Jul-20 00:00N 37°50' W 009°36'1019.9
2017-Jul-19 23:30N 37°40' W 009°33'1019.9
2017-Jul-19 23:00N 37°30' W 009°30'1019.9
2017-Jul-19 22:30N 37°21' W 009°27'1019.7
2017-Jul-19 21:59N 37°11' W 009°24'1219.9
2017-Jul-19 21:24N 36°60' W 009°20'819.6
2017-Jul-19 21:00N 36°52' W 009°17'1519.9
2017-Jul-19 20:15N 36°44' W 009°02'620.6
2017-Jul-19 19:59N 36°43' W 008°55'1020.1
2017-Jul-19 19:30N 36°41' W 008°43'1019.7
2017-Jul-19 19:00N 36°40' W 008°31'1019.2
2017-Jul-19 18:30N 36°39' W 008°19'1019.3
2017-Jul-19 18:00N 36°38' W 008°07'1019.0
2017-Jul-19 17:30N 36°37' W 007°55'79 6.2
2017-Jul-19 04:46N 36°32' W 006°17'1 2.2
2017-Jul-19 04:30N 36°32' W 006°17'3 6.3
2017-Jul-19 03:59N 36°33' W 006°21'204 8.1
2017-Jul-18 02:54N 36°27' W 002°08'1920.6
2017-Jul-18 02:00N 36°37' W 001°48'2721.1
2017-Jul-18 00:42N 36°53' W 001°21'620.8
2017-Jul-18 00:26N 36°57' W 001°15'920.7
2017-Jul-17 23:59N 37°02' W 001°06'1020.7
2017-Jul-17 23:30N 37°08' W 000°56'1020.7
2017-Jul-17 23:00N 37°14' W 000°46'1020.7
2017-Jul-17 22:30N 37°20' W 000°35'1020.4
2017-Jul-17 22:00N 37°26' W 000°24'1220.3
2017-Jul-17 21:25N 37°34' W 000°13'920.5
2017-Jul-17 20:59N 37°39' W 000°04'1020.1
2017-Jul-17 20:30N 37°45' E 000°06'1019.9
2017-Jul-17 20:00N 37°50' E 000°16'1019.8
2017-Jul-17 19:30N 37°56' E 000°26'1019.7
2017-Jul-17 19:00N 38°02' E 000°36'1019.8
2017-Jul-17 18:30N 38°08' E 000°46'1019.9
2017-Jul-17 18:00N 38°14' E 000°57'3200.5
2017-Jul-17 18:00N 38°12' E 000°54'1326.1 090 / 151017.110.8 26.024.626.0
2017-Jul-17 17:30N 38°19' E 001°07'1019.9
2017-Jul-17 17:00N 38°25' E 001°17'1020.0
2017-Jul-17 16:30N 38°31' E 001°27'1019.9
2017-Jul-17 16:00N 38°37' E 001°38'1020.1
2017-Jul-17 15:29N 38°45' E 001°47'1019.9
2017-Jul-17 15:00N 38°52' E 001°56'1019.7
2017-Jul-17 14:30N 38°60' E 002°03'1019.8
2017-Jul-17 14:00N 39°07' E 002°11'1019.9
2017-Jul-17 13:30N 39°15' E 002°19'1020.0
2017-Jul-17 13:00N 39°22' E 002°28'1019.8
2017-Jul-17 12:30N 39°30' E 002°37'4 7.7
2017-Jul-17 12:00N 39°33' E 002°38'0 0.0
2017-Jul-17 11:29N 39°33' E 002°38'0 0.0
2017-Jul-17 10:59N 39°33' E 002°38'0 0.0
2017-Jul-17 10:29N 39°33' E 002°38'0 0.0
2017-Jul-17 09:59N 39°33' E 002°38'0 0.0
2017-Jul-17 09:29N 39°33' E 002°38'0 0.0
2017-Jul-17 08:59N 39°33' E 002°38'0 0.0
2017-Jul-17 08:29N 39°33' E 002°38'0 0.0
2017-Jul-17 07:59N 39°33' E 002°38'0 0.0
2017-Jul-17 07:29N 39°33' E 002°38'0 0.0
2017-Jul-17 06:59N 39°33' E 002°38'0 0.0
2017-Jul-17 06:29N 39°33' E 002°38'0 0.0
2017-Jul-17 05:59N 39°33' E 002°38'0 0.0
2017-Jul-17 05:29N 39°33' E 002°38'0 0.0
2017-Jul-17 04:59N 39°33' E 002°38'0 0.0
2017-Jul-17 04:29N 39°33' E 002°38'0 0.0
2017-Jul-17 03:59N 39°33' E 002°38'0 0.0
2017-Jul-17 03:29N 39°33' E 002°38'0 0.0
2017-Jul-17 02:59N 39°33' E 002°38'0 0.0
2017-Jul-17 02:29N 39°33' E 002°38'0 0.0
2017-Jul-17 01:59N 39°33' E 002°38'0 0.0
2017-Jul-17 01:29N 39°33' E 002°38'0 0.0
2017-Jul-17 00:59N 39°33' E 002°38'0 0.0
2017-Jul-17 00:29N 39°33' E 002°38'0 0.0
2017-Jul-16 23:59N 39°33' E 002°38'0 0.0
2017-Jul-16 23:29N 39°33' E 002°38'0 0.0
2017-Jul-16 22:59N 39°33' E 002°38'0 0.0
2017-Jul-16 22:29N 39°33' E 002°38'0 0.0
2017-Jul-16 21:59N 39°33' E 002°38'0 0.0
2017-Jul-16 21:29N 39°33' E 002°38'0 0.0
2017-Jul-16 20:59N 39°33' E 002°38'0 0.0
2017-Jul-16 20:29N 39°33' E 002°38'0 0.0
2017-Jul-16 19:59N 39°33' E 002°38'0 0.0
2017-Jul-16 19:29N 39°33' E 002°38'0 0.0
2017-Jul-16 18:59N 39°33' E 002°38'0 0.0
2017-Jul-16 18:29N 39°33' E 002°38'0 0.0
2017-Jul-16 17:59N 39°33' E 002°38'0 0.0
2017-Jul-16 17:29N 39°33' E 002°38'0 0.0
2017-Jul-16 16:59N 39°33' E 002°38'0 0.0
2017-Jul-16 16:29N 39°33' E 002°38'4 7.5
2017-Jul-16 16:00N 39°30' E 002°36'4412.8 180 / 51019.110.8 27.025.727.0
2017-Jul-16 15:59N 39°33' E 002°38'0 0.0
2017-Jul-16 15:29N 39°33' E 002°38'0 0.0
2017-Jul-16 14:59N 39°33' E 002°38'0 0.0
2017-Jul-16 14:29N 39°33' E 002°38'0 0.0
2017-Jul-16 13:59N 39°33' E 002°38'0 0.0
2017-Jul-16 13:29N 39°33' E 002°38'0 0.0
2017-Jul-16 12:59N 39°33' E 002°38'0 0.0
2017-Jul-16 12:29N 39°33' E 002°38'0 0.0
2017-Jul-16 11:59N 39°33' E 002°38'0 0.0
2017-Jul-16 11:29N 39°33' E 002°38'0 0.0
2017-Jul-16 10:59N 39°33' E 002°38'0 0.0
2017-Jul-16 10:29N 39°33' E 002°38'0 0.0
2017-Jul-16 09:59N 39°33' E 002°38'0 0.0
2017-Jul-16 09:29N 39°33' E 002°38'0 0.0
2017-Jul-16 08:59N 39°33' E 002°38'0 0.5
2017-Jul-16 08:30N 39°33' E 002°38'2 4.8
2017-Jul-16 08:00N 39°31' E 002°39'613.1
2017-Jul-16 07:31N 39°25' E 002°41'816.0
2017-Jul-16 07:00N 39°17' E 002°44'918.8
2017-Jul-16 06:30N 39°08' E 002°49'917.9
2017-Jul-16 06:00N 39°03' E 002°58'918.8
2017-Jul-16 05:30N 39°03' E 003°11'918.6
2017-Jul-16 05:00N 39°02' E 003°22'918.4
2017-Jul-16 04:30N 39°00' E 003°34'918.4
2017-Jul-16 04:00N 38°59' E 003°46'918.4
2017-Jul-16 03:31N 38°58' E 003°58'918.3
2017-Jul-16 03:00N 38°57' E 004°09'4334.9
2017-Jul-16 03:00N 38°54' E 004°06'1224.2 360 / 161020.110.8 25.023.923.0
2017-Jul-16 02:30N 38°56' E 004°21'19918.3
2017-Jul-15 15:36N 38°47' E 008°37'516.9
2017-Jul-15 15:19N 38°48' E 008°43'617.1
2017-Jul-15 14:59N 38°49' E 008°50'1717.5
2017-Jul-15 13:59N 39°00' E 009°07'816.0
2017-Jul-15 13:31N 39°08' E 009°07'4 8.6
2017-Jul-15 13:00N 39°12' E 009°06'0 0.2
2017-Jul-15 12:30N 39°13' E 009°06'0 0.0
2017-Jul-15 12:00N 39°13' E 009°06'0 0.0
2017-Jul-15 11:30N 39°13' E 009°06'0 0.0
2017-Jul-15 11:00N 39°13' E 009°06'0 0.0
2017-Jul-15 10:30N 39°13' E 009°06'0 0.0
2017-Jul-15 10:00N 39°13' E 009°06'0 0.0
2017-Jul-15 09:30N 39°13' E 009°06'0 0.0
2017-Jul-15 09:00N 39°13' E 009°06'0 0.0
2017-Jul-15 08:30N 39°13' E 009°06'0 0.0
2017-Jul-15 08:00N 39°13' E 009°06'0 0.0
2017-Jul-15 07:30N 39°13' E 009°06'0 0.0
2017-Jul-15 07:00N 39°13' E 009°06'0 0.0
2017-Jul-15 06:30N 39°13' E 009°06'0 0.0
2017-Jul-15 06:00N 39°13' E 009°06'0 0.0
2017-Jul-15 05:30N 39°13' E 009°06'0 0.0
2017-Jul-15 05:00N 39°13' E 009°06'0 1.0
2017-Jul-15 04:30N 39°12' E 009°07'2 4.2
2017-Jul-15 04:00N 39°10' E 009°07'714.9
2017-Jul-15 03:30N 39°05' E 009°13'917.4
2017-Jul-15 03:00N 39°01' E 009°23'916.7
2017-Jul-15 02:28N 38°60' E 009°35'13816.3
2017-Jul-14 18:00N 41°18' E 009°30'99 5.1 270 / 301013.010.8 24.022.623.0
2017-Jul-13 22:32N 42°31' E 008°01'111.9
2017-Jul-13 22:27N 42°32' E 008°01'711.9
2017-Jul-13 21:50N 42°39' E 007°57'511.9
2017-Jul-13 21:26N 42°44' E 007°55'511.8
2017-Jul-13 21:00N 42°48' E 007°52'711.9
2017-Jul-13 20:27N 42°54' E 007°48'612.3
2017-Jul-13 19:59N 42°59' E 007°45'611.7
2017-Jul-13 19:28N 43°05' E 007°42'511.8
2017-Jul-13 19:00N 43°10' E 007°40'612.0
2017-Jul-13 18:31N 43°16' E 007°37'612.3
2017-Jul-13 18:01N 43°21' E 007°32'612.4
2017-Jul-13 17:30N 43°26' E 007°27'612.4
2017-Jul-13 17:00N 43°31' E 007°23'612.8
2017-Jul-13 16:30N 43°38' E 007°21'3 0.3
2017-Jul-13 06:09N 43°40' E 007°19'1 8.2
2017-Jul-13 05:59N 43°39' E 007°19'916.7
2017-Jul-13 05:25N 43°30' E 007°14'718.0
2017-Jul-13 05:00N 43°24' E 007°08'918.1
2017-Jul-13 04:30N 43°17' E 007°00'1318.0
2017-Jul-13 03:48N 43°07' E 006°49'518.3
2017-Jul-13 03:30N 43°03' E 006°45'1018.2
2017-Jul-13 02:59N 42°55' E 006°37'917.9
2017-Jul-13 02:30N 42°48' E 006°30'917.5
2017-Jul-13 02:00N 42°43' E 006°21'918.3
2017-Jul-13 01:30N 42°36' E 006°12'4318.5
2017-Jul-12 23:11N 42°08' E 005°28'10020.3
2017-Jul-12 18:16N 41°03' E 003°47'520.1
2017-Jul-12 18:00N 40°60' E 003°42'7678.4
2017-Jul-12 18:00N 40°54' E 003°36'3 5.8 060 / 121018.010.8 26.024.627.0
2017-Jul-12 17:30N 40°53' E 003°32'1019.8
2017-Jul-12 17:00N 40°46' E 003°23'1019.5
2017-Jul-12 16:30N 40°40' E 003°13'1019.9
2017-Jul-12 16:00N 40°33' E 003°04'1020.0
2017-Jul-12 15:30N 40°27' E 002°53'1020.1
2017-Jul-12 15:00N 40°20' E 002°44'2020.2
2017-Jul-12 14:00N 40°07' E 002°24'1020.6
2017-Jul-12 13:30N 40°01' E 002°13'1121.1
2017-Jul-12 13:00N 39°54' E 002°02'1020.9
2017-Jul-12 12:30N 39°48' E 001°52'1120.5
2017-Jul-12 12:00N 39°41' E 001°41'1020.4
2017-Jul-12 11:30N 39°34' E 001°32'1020.2
2017-Jul-12 11:00N 39°27' E 001°22'1020.4
2017-Jul-12 10:30N 39°21' E 001°12'1020.8
2017-Jul-12 10:00N 39°14' E 001°02'1120.5
2017-Jul-12 09:27N 39°06' E 000°52'1020.7
2017-Jul-12 08:59N 38°57' E 000°45'1120.9
2017-Jul-12 08:27N 38°48' E 000°38'1020.7
2017-Jul-12 07:58N 38°39' E 000°32'1120.6
2017-Jul-12 07:27N 38°30' E 000°24'920.4
2017-Jul-12 07:00N 38°23' E 000°17'1120.4
2017-Jul-12 06:29N 38°14' E 000°10'1019.9
2017-Jul-12 06:00N 38°06' E 000°03'1019.5
2017-Jul-12 05:30N 37°58' W 000°05'1119.5
2017-Jul-12 04:57N 37°50' W 000°13'919.6
2017-Jul-12 04:30N 37°43' W 000°20'1019.6
2017-Jul-12 04:00N 37°35' W 000°28'1019.6
2017-Jul-12 03:30N 37°28' W 000°36'1019.9
2017-Jul-12 03:00N 37°21' W 000°44'1020.1
2017-Jul-12 02:30N 37°14' W 000°53'1020.2
2017-Jul-12 02:00N 37°07' W 001°03'1020.4
2017-Jul-12 01:30N 37°00' W 001°12'1020.3
2017-Jul-12 01:00N 36°54' W 001°23'1020.0
2017-Jul-12 00:30N 36°48' W 001°32'2319.9
2017-Jul-11 23:22N 36°33' W 001°54'919.9
2017-Jul-11 22:55N 36°27' W 002°02'9318.9
2017-Jul-11 18:00N 36°06' W 003°54'5224.5 050 / 51015.0 5.4 23.021.623.0
2017-Jul-11 15:52N 36°01' W 004°58'821.2
2017-Jul-11 15:30N 36°01' W 005°08'1020.0
2017-Jul-11 15:00N 36°02' W 005°20'711.5
2017-Jul-11 14:26N 36°09' W 005°22'0 0.3
2017-Jul-11 14:00N 36°09' W 005°22'0 0.0
2017-Jul-11 13:30N 36°09' W 005°22'0 0.0
2017-Jul-11 13:00N 36°09' W 005°22'0 0.0
2017-Jul-11 12:30N 36°09' W 005°22'0 0.0
2017-Jul-11 11:51N 36°09' W 005°22'0 0.0
2017-Jul-11 11:30N 36°09' W 005°22'0 0.0
2017-Jul-11 11:00N 36°09' W 005°22'0 0.0
2017-Jul-11 10:21N 36°09' W 005°22'0 0.0
2017-Jul-11 10:00N 36°09' W 005°22'0 0.0
2017-Jul-11 09:30N 36°09' W 005°22'0 0.0
2017-Jul-11 09:00N 36°09' W 005°22'0 0.0
2017-Jul-11 08:30N 36°09' W 005°22'0 0.0
2017-Jul-11 07:51N 36°09' W 005°22'0 0.4
2017-Jul-11 07:30N 36°09' W 005°22'4 7.0
2017-Jul-11 06:53N 36°04' W 005°22'512.4
2017-Jul-11 06:30N 36°00' W 005°24'713.5
2017-Jul-11 06:01N 35°57' W 005°31'714.3
2017-Jul-11 05:30N 35°56' W 005°40'1319.8
2017-Jul-11 04:51N 35°55' W 005°56'2318.6
2017-Jul-11 03:35N 35°58' W 006°25'12618.0
2017-Jul-10 20:35N 36°30' W 008°56'518.6
2017-Jul-10 20:18N 36°31' W 009°02'  
Track history (hours):
 
Tides and Currents Weather Stations Pressure Air Temp Water Temp Dewpoint Dewpoint Depression Visibility Wind Speed Wind Dir Waves Ship Positions

Navigator Of The Seas

Operator: Royal Caribbean Cruises Ltd

Last reported at 2017-Jul-20 18:00 UTC. Time now 2017-Jul-21 02:30 UTC.
Position N 43°36' W 009°24'.

Type: Passenger vessel. MMSI: 311478000.

Wind from 330 at 12 knots

Barometer 1020.1 mb
Air temperature 18.0 ° C
Visibility: greater than 10.8 NM
Dewpoint 16.4 ° C
Water temperature 18.0 ° C

Date/timePositionNaut miles runAvg speedWind from/ knotsBaromVisibWave heightAir tempDewpointWater temp
2017-Jul-20 18:00N 43°36' W 009°24'23919.2 330 / 121020.110.8 18.016.418.0
2017-Jul-20 05:31N 39°38' W 009°51'019.7
2017-Jul-20 05:30N 39°37' W 009°51'1019.5
2017-Jul-20 04:59N 39°27' W 009°52'919.5
2017-Jul-20 04:30N 39°18' W 009°51'1019.7
2017-Jul-20 04:00N 39°08' W 009°51'1020.1
2017-Jul-20 03:30N 38°58' W 009°51'1019.7
2017-Jul-20 03:00N 38°48' W 009°51'1019.5
2017-Jul-20 02:30N 38°39' W 009°50'1020.0
2017-Jul-20 02:00N 38°29' W 009°48'1019.8
2017-Jul-20 01:30N 38°19' W 009°45'1020.1
2017-Jul-20 01:00N 38°09' W 009°42'1020.0
2017-Jul-20 00:30N 37°60' W 009°40'1020.3
2017-Jul-20 00:00N 37°50' W 009°36'1019.9
2017-Jul-19 23:30N 37°40' W 009°33'1019.9
2017-Jul-19 23:00N 37°30' W 009°30'1019.9
2017-Jul-19 22:30N 37°21' W 009°27'1019.7
2017-Jul-19 21:59N 37°11' W 009°24'1219.9
2017-Jul-19 21:24N 36°60' W 009°20'819.6
2017-Jul-19 21:00N 36°52' W 009°17'1519.9
2017-Jul-19 20:15N 36°44' W 009°02'620.6
2017-Jul-19 19:59N 36°43' W 008°55'1020.1
2017-Jul-19 19:30N 36°41' W 008°43'1019.7
2017-Jul-19 19:00N 36°40' W 008°31'1019.2
2017-Jul-19 18:30N 36°39' W 008°19'1019.3
2017-Jul-19 18:00N 36°38' W 008°07'1019.0
2017-Jul-19 17:30N 36°37' W 007°55'79 6.2
2017-Jul-19 04:46N 36°32' W 006°17'1 2.2
2017-Jul-19 04:30N 36°32' W 006°17'3 6.3
2017-Jul-19 03:59N 36°33' W 006°21'204 8.1
2017-Jul-18 02:54N 36°27' W 002°08'1920.6
2017-Jul-18 02:00N 36°37' W 001°48'2721.1
2017-Jul-18 00:42N 36°53' W 001°21'620.8
2017-Jul-18 00:26N 36°57' W 001°15'920.7
2017-Jul-17 23:59N 37°02' W 001°06'1020.7
2017-Jul-17 23:30N 37°08' W 000°56'1020.7
2017-Jul-17 23:00N 37°14' W 000°46'1020.7
2017-Jul-17 22:30N 37°20' W 000°35'1020.4
2017-Jul-17 22:00N 37°26' W 000°24'1220.3
2017-Jul-17 21:25N 37°34' W 000°13'920.5
2017-Jul-17 20:59N 37°39' W 000°04'1020.1
2017-Jul-17 20:30N 37°45' E 000°06'1019.9
2017-Jul-17 20:00N 37°50' E 000°16'1019.8
2017-Jul-17 19:30N 37°56' E 000°26'1019.7
2017-Jul-17 19:00N 38°02' E 000°36'1019.8
2017-Jul-17 18:30N 38°08' E 000°46'1019.9
2017-Jul-17 18:00N 38°14' E 000°57'3200.5
2017-Jul-17 18:00N 38°12' E 000°54'1326.1 090 / 151017.110.8 26.024.626.0
2017-Jul-17 17:30N 38°19' E 001°07'1019.9
2017-Jul-17 17:00N 38°25' E 001°17'1020.0
2017-Jul-17 16:30N 38°31' E 001°27'1019.9
2017-Jul-17 16:00N 38°37' E 001°38'1020.1
2017-Jul-17 15:29N 38°45' E 001°47'1019.9
2017-Jul-17 15:00N 38°52' E 001°56'1019.7
2017-Jul-17 14:30N 38°60' E 002°03'1019.8
2017-Jul-17 14:00N 39°07' E 002°11'1019.9
2017-Jul-17 13:30N 39°15' E 002°19'1020.0
2017-Jul-17 13:00N 39°22' E 002°28'1019.8
2017-Jul-17 12:30N 39°30' E 002°37'4 7.7
2017-Jul-17 12:00N 39°33' E 002°38'0 0.0
2017-Jul-17 11:29N 39°33' E 002°38'0 0.0
2017-Jul-17 10:59N 39°33' E 002°38'0 0.0
2017-Jul-17 10:29N 39°33' E 002°38'0 0.0
2017-Jul-17 09:59N 39°33' E 002°38'0 0.0
2017-Jul-17 09:29N 39°33' E 002°38'0 0.0
2017-Jul-17 08:59N 39°33' E 002°38'0 0.0
2017-Jul-17 08:29N 39°33' E 002°38'0 0.0
2017-Jul-17 07:59N 39°33' E 002°38'0 0.0
2017-Jul-17 07:29N 39°33' E 002°38'0 0.0
2017-Jul-17 06:59N 39°33' E 002°38'0 0.0
2017-Jul-17 06:29N 39°33' E 002°38'0 0.0
2017-Jul-17 05:59N 39°33' E 002°38'0 0.0
2017-Jul-17 05:29N 39°33' E 002°38'0 0.0
2017-Jul-17 04:59N 39°33' E 002°38'0 0.0
2017-Jul-17 04:29N 39°33' E 002°38'0 0.0
2017-Jul-17 03:59N 39°33' E 002°38'0 0.0
2017-Jul-17 03:29N 39°33' E 002°38'0 0.0
2017-Jul-17 02:59N 39°33' E 002°38'0 0.0
2017-Jul-17 02:29N 39°33' E 002°38'0 0.0
2017-Jul-17 01:59N 39°33' E 002°38'0 0.0
2017-Jul-17 01:29N 39°33' E 002°38'0 0.0
2017-Jul-17 00:59N 39°33' E 002°38'0 0.0
2017-Jul-17 00:29N 39°33' E 002°38'0 0.0
2017-Jul-16 23:59N 39°33' E 002°38'0 0.0
2017-Jul-16 23:29N 39°33' E 002°38'0 0.0
2017-Jul-16 22:59N 39°33' E 002°38'0 0.0
2017-Jul-16 22:29N 39°33' E 002°38'0 0.0
2017-Jul-16 21:59N 39°33' E 002°38'0 0.0
2017-Jul-16 21:29N 39°33' E 002°38'0 0.0
2017-Jul-16 20:59N 39°33' E 002°38'0 0.0
2017-Jul-16 20:29N 39°33' E 002°38'0 0.0
2017-Jul-16 19:59N 39°33' E 002°38'0 0.0
2017-Jul-16 19:29N 39°33' E 002°38'0 0.0
2017-Jul-16 18:59N 39°33' E 002°38'0 0.0
2017-Jul-16 18:29N 39°33' E 002°38'0 0.0
2017-Jul-16 17:59N 39°33' E 002°38'0 0.0
2017-Jul-16 17:29N 39°33' E 002°38'0 0.0
2017-Jul-16 16:59N 39°33' E 002°38'0 0.0
2017-Jul-16 16:29N 39°33' E 002°38'4 7.5
2017-Jul-16 16:00N 39°30' E 002°36'4412.8 180 / 51019.110.8 27.025.727.0
2017-Jul-16 15:59N 39°33' E 002°38'0 0.0
2017-Jul-16 15:29N 39°33' E 002°38'0 0.0
2017-Jul-16 14:59N 39°33' E 002°38'0 0.0
2017-Jul-16 14:29N 39°33' E 002°38'0 0.0
2017-Jul-16 13:59N 39°33' E 002°38'0 0.0
2017-Jul-16 13:29N 39°33' E 002°38'0 0.0
2017-Jul-16 12:59N 39°33' E 002°38'0 0.0
2017-Jul-16 12:29N 39°33' E 002°38'0 0.0
2017-Jul-16 11:59N 39°33' E 002°38'0 0.0
2017-Jul-16 11:29N 39°33' E 002°38'0 0.0
2017-Jul-16 10:59N 39°33' E 002°38'0 0.0
2017-Jul-16 10:29N 39°33' E 002°38'0 0.0
2017-Jul-16 09:59N 39°33' E 002°38'0 0.0
2017-Jul-16 09:29N 39°33' E 002°38'0 0.0
2017-Jul-16 08:59N 39°33' E 002°38'0 0.5
2017-Jul-16 08:30N 39°33' E 002°38'2 4.8
2017-Jul-16 08:00N 39°31' E 002°39'613.1
2017-Jul-16 07:31N 39°25' E 002°41'816.0
2017-Jul-16 07:00N 39°17' E 002°44'918.8
2017-Jul-16 06:30N 39°08' E 002°49'917.9
2017-Jul-16 06:00N 39°03' E 002°58'918.8
2017-Jul-16 05:30N 39°03' E 003°11'918.6
2017-Jul-16 05:00N 39°02' E 003°22'918.4
2017-Jul-16 04:30N 39°00' E 003°34'918.4
2017-Jul-16 04:00N 38°59' E 003°46'918.4
2017-Jul-16 03:31N 38°58' E 003°58'918.3
2017-Jul-16 03:00N 38°57' E 004°09'4334.9
2017-Jul-16 03:00N 38°54' E 004°06'1224.2 360 / 161020.110.8 25.023.923.0
2017-Jul-16 02:30N 38°56' E 004°21'19918.3
2017-Jul-15 15:36N 38°47' E 008°37'516.9
2017-Jul-15 15:19N 38°48' E 008°43'617.1
2017-Jul-15 14:59N 38°49' E 008°50'1717.5
2017-Jul-15 13:59N 39°00' E 009°07'816.0
2017-Jul-15 13:31N 39°08' E 009°07'4 8.6
2017-Jul-15 13:00N 39°12' E 009°06'0 0.2
2017-Jul-15 12:30N 39°13' E 009°06'0 0.0
2017-Jul-15 12:00N 39°13' E 009°06'0 0.0
2017-Jul-15 11:30N 39°13' E 009°06'0 0.0
2017-Jul-15 11:00N 39°13' E 009°06'0 0.0
2017-Jul-15 10:30N 39°13' E 009°06'0 0.0
2017-Jul-15 10:00N 39°13' E 009°06'0 0.0
2017-Jul-15 09:30N 39°13' E 009°06'0 0.0
2017-Jul-15 09:00N 39°13' E 009°06'0 0.0
2017-Jul-15 08:30N 39°13' E 009°06'0 0.0
2017-Jul-15 08:00N 39°13' E 009°06'0 0.0
2017-Jul-15 07:30N 39°13' E 009°06'0 0.0
2017-Jul-15 07:00N 39°13' E 009°06'0 0.0
2017-Jul-15 06:30N 39°13' E 009°06'0 0.0
2017-Jul-15 06:00N 39°13' E 009°06'0 0.0
2017-Jul-15 05:30N 39°13' E 009°06'0 0.0
2017-Jul-15 05:00N 39°13' E 009°06'0 1.0
2017-Jul-15 04:30N 39°12' E 009°07'2 4.2
2017-Jul-15 04:00N 39°10' E 009°07'714.9
2017-Jul-15 03:30N 39°05' E 009°13'917.4
2017-Jul-15 03:00N 39°01' E 009°23'916.7
2017-Jul-15 02:28N 38°60' E 009°35'13816.3
2017-Jul-14 18:00N 41°18' E 009°30'99 5.1 270 / 301013.010.8 24.022.623.0
2017-Jul-13 22:32N 42°31' E 008°01'111.9
2017-Jul-13 22:27N 42°32' E 008°01'711.9
2017-Jul-13 21:50N 42°39' E 007°57'511.9
2017-Jul-13 21:26N 42°44' E 007°55'511.8
2017-Jul-13 21:00N 42°48' E 007°52'711.9
2017-Jul-13 20:27N 42°54' E 007°48'612.3
2017-Jul-13 19:59N 42°59' E 007°45'611.7
2017-Jul-13 19:28N 43°05' E 007°42'511.8
2017-Jul-13 19:00N 43°10' E 007°40'612.0
2017-Jul-13 18:31N 43°16' E 007°37'612.3
2017-Jul-13 18:01N 43°21' E 007°32'612.4
2017-Jul-13 17:30N 43°26' E 007°27'612.4
2017-Jul-13 17:00N 43°31' E 007°23'612.8
2017-Jul-13 16:30N 43°38' E 007°21'3 0.3
2017-Jul-13 06:09N 43°40' E 007°19'1 8.2
2017-Jul-13 05:59N 43°39' E 007°19'916.7
2017-Jul-13 05:25N 43°30' E 007°14'718.0
2017-Jul-13 05:00N 43°24' E 007°08'918.1
2017-Jul-13 04:30N 43°17' E 007°00'1318.0
2017-Jul-13 03:48N 43°07' E 006°49'518.3
2017-Jul-13 03:30N 43°03' E 006°45'1018.2
2017-Jul-13 02:59N 42°55' E 006°37'917.9
2017-Jul-13 02:30N 42°48' E 006°30'917.5
2017-Jul-13 02:00N 42°43' E 006°21'918.3
2017-Jul-13 01:30N 42°36' E 006°12'4318.5
2017-Jul-12 23:11N 42°08' E 005°28'10020.3
2017-Jul-12 18:16N 41°03' E 003°47'520.1
2017-Jul-12 18:00N 40°60' E 003°42'7678.4
2017-Jul-12 18:00N 40°54' E 003°36'3 5.8 060 / 121018.010.8 26.024.627.0
2017-Jul-12 17:30N 40°53' E 003°32'1019.8
2017-Jul-12 17:00N 40°46' E 003°23'1019.5
2017-Jul-12 16:30N 40°40' E 003°13'1019.9
2017-Jul-12 16:00N 40°33' E 003°04'1020.0
2017-Jul-12 15:30N 40°27' E 002°53'1020.1
2017-Jul-12 15:00N 40°20' E 002°44'2020.2
2017-Jul-12 14:00N 40°07' E 002°24'1020.6
2017-Jul-12 13:30N 40°01' E 002°13'1121.1
2017-Jul-12 13:00N 39°54' E 002°02'1020.9
2017-Jul-12 12:30N 39°48' E 001°52'1120.5
2017-Jul-12 12:00N 39°41' E 001°41'1020.4
2017-Jul-12 11:30N 39°34' E 001°32'1020.2
2017-Jul-12 11:00N 39°27' E 001°22'1020.4
2017-Jul-12 10:30N 39°21' E 001°12'1020.8
2017-Jul-12 10:00N 39°14' E 001°02'1120.5
2017-Jul-12 09:27N 39°06' E 000°52'1020.7
2017-Jul-12 08:59N 38°57' E 000°45'1120.9
2017-Jul-12 08:27N 38°48' E 000°38'1020.7
2017-Jul-12 07:58N 38°39' E 000°32'1120.6
2017-Jul-12 07:27N 38°30' E 000°24'920.4
2017-Jul-12 07:00N 38°23' E 000°17'1120.4
2017-Jul-12 06:29N 38°14' E 000°10'1019.9
2017-Jul-12 06:00N 38°06' E 000°03'1019.5
2017-Jul-12 05:30N 37°58' W 000°05'1119.5
2017-Jul-12 04:57N 37°50' W 000°13'919.6
2017-Jul-12 04:30N 37°43' W 000°20'1019.6
2017-Jul-12 04:00N 37°35' W 000°28'1019.6
2017-Jul-12 03:30N 37°28' W 000°36'1019.9
2017-Jul-12 03:00N 37°21' W 000°44'1020.1
2017-Jul-12 02:30N 37°14' W 000°53'1020.2
2017-Jul-12 02:00N 37°07' W 001°03'1020.4
2017-Jul-12 01:30N 37°00' W 001°12'1020.3
2017-Jul-12 01:00N 36°54' W 001°23'1020.0
2017-Jul-12 00:30N 36°48' W 001°32'2319.9
2017-Jul-11 23:22N 36°33' W 001°54'919.9
2017-Jul-11 22:55N 36°27' W 002°02'9318.9
2017-Jul-11 18:00N 36°06' W 003°54'5224.5 050 / 51015.0 5.4 23.021.623.0
2017-Jul-11 15:52N 36°01' W 004°58'821.2
2017-Jul-11 15:30N 36°01' W 005°08'1020.0
2017-Jul-11 15:00N 36°02' W 005°20'711.5
2017-Jul-11 14:26N 36°09' W 005°22'0 0.3
2017-Jul-11 14:00N 36°09' W 005°22'0 0.0
2017-Jul-11 13:30N 36°09' W 005°22'0 0.0
2017-Jul-11 13:00N 36°09' W 005°22'0 0.0
2017-Jul-11 12:30N 36°09' W 005°22'0 0.0
2017-Jul-11 11:51N 36°09' W 005°22'0 0.0
2017-Jul-11 11:30N 36°09' W 005°22'0 0.0
2017-Jul-11 11:00N 36°09' W 005°22'0 0.0
2017-Jul-11 10:21N 36°09' W 005°22'0 0.0
2017-Jul-11 10:00N 36°09' W 005°22'0 0.0
2017-Jul-11 09:30N 36°09' W 005°22'0 0.0
2017-Jul-11 09:00N 36°09' W 005°22'0 0.0
2017-Jul-11 08:30N 36°09' W 005°22'0 0.0
2017-Jul-11 07:51N 36°09' W 005°22'0 0.4
2017-Jul-11 07:30N 36°09' W 005°22'4 7.0
2017-Jul-11 06:53N 36°04' W 005°22'512.4
2017-Jul-11 06:30N 36°00' W 005°24'713.5
2017-Jul-11 06:01N 35°57' W 005°31'714.3
2017-Jul-11 05:30N 35°56' W 005°40'1319.8
2017-Jul-11 04:51N 35°55' W 005°56'2318.6
2017-Jul-11 03:35N 35°58' W 006°25'12618.0
2017-Jul-10 20:35N 36°30' W 008°56'518.6
2017-Jul-10 20:18N 36°31' W 009°02'  

Dump ship's entire track history